sensor_id;sensor_type;location;lat;lon;timestamp;temperature;humidity
10678;DHT22;5387;48.722;9.110;2022-11-15T00:02:06;7.10;99.90
10678;DHT22;5387;48.722;9.110;2022-11-15T00:04:32;7.30;99.90
10678;DHT22;5387;48.722;9.110;2022-11-15T00:06:59;7.50;99.90
10678;DHT22;5387;48.722;9.110;2022-11-15T00:09:27;7.50;99.90
10678;DHT22;5387;48.722;9.110;2022-11-15T00:11:54;7.80;99.90
10678;DHT22;5387;48.722;9.110;2022-11-15T00:14:21;7.80;99.90
10678;DHT22;5387;48.722;9.110;2022-11-15T00:16:48;7.90;99.90
10678;DHT22;5387;48.722;9.110;2022-11-15T00:19:14;8.00;99.90
10678;DHT22;5387;48.722;9.110;2022-11-15T00:21:41;8.10;99.90
10678;DHT22;5387;48.722;9.110;2022-11-15T00:24:08;8.10;99.90
10678;DHT22;5387;48.722;9.110;2022-11-15T00:26:37;8.10;99.90
10678;DHT22;5387;48.722;9.110;2022-11-15T00:29:03;8.20;99.90
10678;DHT22;5387;48.722;9.110;2022-11-15T00:31:30;8.20;99.90
10678;DHT22;5387;48.722;9.110;2022-11-15T00:33:57;8.20;99.90
10678;DHT22;5387;48.722;9.110;2022-11-15T00:36:24;8.30;99.90
10678;DHT22;5387;48.722;9.110;2022-11-15T00:38:51;8.40;99.90
10678;DHT22;5387;48.722;9.110;2022-11-15T00:41:18;8.50;99.90
10678;DHT22;5387;48.722;9.110;2022-11-15T00:43:46;8.60;99.90
10678;DHT22;5387;48.722;9.110;2022-11-15T00:46:12;8.60;99.90
10678;DHT22;5387;48.722;9.110;2022-11-15T00:48:39;8.50;99.90
10678;DHT22;5387;48.722;9.110;2022-11-15T00:51:06;8.40;99.90
10678;DHT22;5387;48.722;9.110;2022-11-15T00:53:33;8.40;99.90
10678;DHT22;5387;48.722;9.110;2022-11-15T00:56:00;8.40;99.90
10678;DHT22;5387;48.722;9.110;2022-11-15T00:58:27;8.20;99.90
10678;DHT22;5387;48.722;9.110;2022-11-15T01:00:55;8.20;99.90
10678;DHT22;5387;48.722;9.110;2022-11-15T01:03:21;8.20;99.90
10678;DHT22;5387;48.722;9.110;2022-11-15T01:05:48;8.10;99.90
10678;DHT22;5387;48.722;9.110;2022-11-15T01:08:16;8.10;99.90
10678;DHT22;5387;48.722;9.110;2022-11-15T01:10:42;8.20;99.90
10678;DHT22;5387;48.722;9.110;2022-11-15T01:13:09;8.10;99.90
10678;DHT22;5387;48.722;9.110;2022-11-15T01:15:39;8.20;99.90
10678;DHT22;5387;48.722;9.110;2022-11-15T01:18:08;8.20;99.90
10678;DHT22;5387;48.722;9.110;2022-11-15T01:20:39;8.20;99.90
10678;DHT22;5387;48.722;9.110;2022-11-15T01:23:06;8.20;99.90
10678;DHT22;5387;48.722;9.110;2022-11-15T01:25:33;8.30;99.90
10678;DHT22;5387;48.722;9.110;2022-11-15T01:28:00;8.10;99.90
10678;DHT22;5387;48.722;9.110;2022-11-15T01:30:27;8.10;99.90
10678;DHT22;5387;48.722;9.110;2022-11-15T01:32:54;8.10;99.90
10678;DHT22;5387;48.722;9.110;2022-11-15T01:35:22;8.00;99.90
10678;DHT22;5387;48.722;9.110;2022-11-15T01:37:49;7.90;99.90
10678;DHT22;5387;48.722;9.110;2022-11-15T01:40:15;7.90;99.90
10678;DHT22;5387;48.722;9.110;2022-11-15T01:42:42;7.80;99.90
10678;DHT22;5387;48.722;9.110;2022-11-15T01:45:12;7.70;99.90
10678;DHT22;5387;48.722;9.110;2022-11-15T01:47:43;7.60;99.90
10678;DHT22;5387;48.722;9.110;2022-11-15T01:50:15;7.60;99.90
10678;DHT22;5387;48.722;9.110;2022-11-15T01:52:45;7.50;99.90
10678;DHT22;5387;48.722;9.110;2022-11-15T01:55:14;7.50;99.90
10678;DHT22;5387;48.722;9.110;2022-11-15T01:57:44;7.50;99.90
10678;DHT22;5387;48.722;9.110;2022-11-15T02:00:13;7.50;99.90
10678;DHT22;5387;48.722;9.110;2022-11-15T02:02:40;7.50;99.90
10678;DHT22;5387;48.722;9.110;2022-11-15T02:05:07;7.50;99.90
10678;DHT22;5387;48.722;9.110;2022-11-15T02:07:35;7.50;99.90
10678;DHT22;5387;48.722;9.110;2022-11-15T02:10:07;7.50;99.90
10678;DHT22;5387;48.722;9.110;2022-11-15T02:12:35;7.50;99.90
10678;DHT22;5387;48.722;9.110;2022-11-15T02:15:03;7.30;99.90
10678;DHT22;5387;48.722;9.110;2022-11-15T02:17:48;7.20;99.90
10678;DHT22;5387;48.722;9.110;2022-11-15T02:20:39;7.10;99.90
10678;DHT22;5387;48.722;9.110;2022-11-15T02:29:22;6.70;99.90
10678;DHT22;5387;48.722;9.110;2022-11-15T02:31:59;6.60;99.90
10678;DHT22;5387;48.722;9.110;2022-11-15T02:34:34;6.50;99.90
10678;DHT22;5387;48.722;9.110;2022-11-15T02:37:07;6.50;99.90
10678;DHT22;5387;48.722;9.110;2022-11-15T02:39:44;6.50;99.90
10678;DHT22;5387;48.722;9.110;2022-11-15T02:42:15;6.50;99.90
10678;DHT22;5387;48.722;9.110;2022-11-15T02:44:58;6.60;99.90
10678;DHT22;5387;48.722;9.110;2022-11-15T02:47:30;6.40;99.90
10678;DHT22;5387;48.722;9.110;2022-11-15T02:50:01;6.30;99.90
10678;DHT22;5387;48.722;9.110;2022-11-15T02:52:28;6.40;99.90
10678;DHT22;5387;48.722;9.110;2022-11-15T02:54:56;6.30;99.90
10678;DHT22;5387;48.722;9.110;2022-11-15T02:57:29;6.20;99.90
10678;DHT22;5387;48.722;9.110;2022-11-15T03:00:05;6.10;99.90
10678;DHT22;5387;48.722;9.110;2022-11-15T03:02:46;6.10;99.90
10678;DHT22;5387;48.722;9.110;2022-11-15T03:05:24;6.00;99.90
10678;DHT22;5387;48.722;9.110;2022-11-15T03:07:55;5.90;99.90
10678;DHT22;5387;48.722;9.110;2022-11-15T03:10:28;5.90;99.90
10678;DHT22;5387;48.722;9.110;2022-11-15T03:13:03;5.80;99.90
10678;DHT22;5387;48.722;9.110;2022-11-15T03:15:34;5.80;99.90
10678;DHT22;5387;48.722;9.110;2022-11-15T03:18:08;5.90;99.90
10678;DHT22;5387;48.722;9.110;2022-11-15T03:20:37;5.80;99.90
10678;DHT22;5387;48.722;9.110;2022-11-15T03:23:06;5.90;99.90
10678;DHT22;5387;48.722;9.110;2022-11-15T03:25:34;5.90;99.90
10678;DHT22;5387;48.722;9.110;2022-11-15T03:28:05;5.90;99.90
10678;DHT22;5387;48.722;9.110;2022-11-15T03:30:34;6.00;99.90
10678;DHT22;5387;48.722;9.110;2022-11-15T03:33:04;5.90;99.90
10678;DHT22;5387;48.722;9.110;2022-11-15T03:35:36;5.90;99.90
10678;DHT22;5387;48.722;9.110;2022-11-15T03:38:08;6.00;99.90
10678;DHT22;5387;48.722;9.110;2022-11-15T03:40:40;6.00;99.90
10678;DHT22;5387;48.722;9.110;2022-11-15T03:43:19;6.00;99.90
10678;DHT22;5387;48.722;9.110;2022-11-15T03:45:53;5.80;99.90
10678;DHT22;5387;48.722;9.110;2022-11-15T03:48:25;5.90;99.90
10678;DHT22;5387;48.722;9.110;2022-11-15T03:50:53;6.00;99.90
10678;DHT22;5387;48.722;9.110;2022-11-15T03:53:21;6.00;99.90
10678;DHT22;5387;48.722;9.110;2022-11-15T03:55:47;6.00;99.90
10678;DHT22;5387;48.722;9.110;2022-11-15T03:58:14;5.90;99.90
10678;DHT22;5387;48.722;9.110;2022-11-15T04:00:41;6.00;99.90
10678;DHT22;5387;48.722;9.110;2022-11-15T04:03:08;6.10;99.90
10678;DHT22;5387;48.722;9.110;2022-11-15T04:05:36;6.10;99.90
10678;DHT22;5387;48.722;9.110;2022-11-15T04:08:03;6.20;99.90
10678;DHT22;5387;48.722;9.110;2022-11-15T04:10:30;6.20;99.90
10678;DHT22;5387;48.722;9.110;2022-11-15T04:12:57;6.30;99.90
10678;DHT22;5387;48.722;9.110;2022-11-15T04:15:24;6.40;99.90
10678;DHT22;5387;48.722;9.110;2022-11-15T04:17:52;6.50;99.90
10678;DHT22;5387;48.722;9.110;2022-11-15T04:20:21;6.70;99.90
10678;DHT22;5387;48.722;9.110;2022-11-15T04:23:11;6.60;99.90
10678;DHT22;5387;48.722;9.110;2022-11-15T04:25:59;6.70;99.90
10678;DHT22;5387;48.722;9.110;2022-11-15T04:28:26;6.80;99.90
10678;DHT22;5387;48.722;9.110;2022-11-15T04:30:53;6.70;99.90
10678;DHT22;5387;48.722;9.110;2022-11-15T04:33:20;6.70;99.90
10678;DHT22;5387;48.722;9.110;2022-11-15T04:35:47;6.70;99.90
10678;DHT22;5387;48.722;9.110;2022-11-15T04:38:30;6.70;99.90
10678;DHT22;5387;48.722;9.110;2022-11-15T04:40:56;6.70;99.90
10678;DHT22;5387;48.722;9.110;2022-11-15T04:43:23;6.70;99.90
10678;DHT22;5387;48.722;9.110;2022-11-15T04:45:50;6.60;99.90
10678;DHT22;5387;48.722;9.110;2022-11-15T04:48:17;6.50;99.90
10678;DHT22;5387;48.722;9.110;2022-11-15T04:50:44;6.40;99.90
10678;DHT22;5387;48.722;9.110;2022-11-15T04:53:10;6.30;99.90
10678;DHT22;5387;48.722;9.110;2022-11-15T04:55:39;6.30;99.90
10678;DHT22;5387;48.722;9.110;2022-11-15T04:58:05;6.30;99.90
10678;DHT22;5387;48.722;9.110;2022-11-15T05:00:32;6.20;99.90
10678;DHT22;5387;48.722;9.110;2022-11-15T05:02:59;6.30;99.90
10678;DHT22;5387;48.722;9.110;2022-11-15T05:05:46;6.30;99.90
10678;DHT22;5387;48.722;9.110;2022-11-15T05:08:12;6.30;99.90
10678;DHT22;5387;48.722;9.110;2022-11-15T05:10:41;6.30;99.90
10678;DHT22;5387;48.722;9.110;2022-11-15T05:13:07;6.20;99.90
10678;DHT22;5387;48.722;9.110;2022-11-15T05:15:34;6.10;99.90
10678;DHT22;5387;48.722;9.110;2022-11-15T05:18:01;6.10;99.90
10678;DHT22;5387;48.722;9.110;2022-11-15T05:20:28;6.00;99.90
10678;DHT22;5387;48.722;9.110;2022-11-15T05:22:54;5.90;99.90
10678;DHT22;5387;48.722;9.110;2022-11-15T05:25:21;5.90;99.90
10678;DHT22;5387;48.722;9.110;2022-11-15T05:27:50;6.00;99.90
10678;DHT22;5387;48.722;9.110;2022-11-15T05:30:17;6.10;99.90
10678;DHT22;5387;48.722;9.110;2022-11-15T05:32:44;6.20;99.90
10678;DHT22;5387;48.722;9.110;2022-11-15T05:35:15;6.30;99.90
10678;DHT22;5387;48.722;9.110;2022-11-15T05:37:45;6.40;99.90
10678;DHT22;5387;48.722;9.110;2022-11-15T05:40:11;6.30;99.90
10678;DHT22;5387;48.722;9.110;2022-11-15T05:42:38;6.20;99.90
10678;DHT22;5387;48.722;9.110;2022-11-15T05:45:08;6.30;99.90
10678;DHT22;5387;48.722;9.110;2022-11-15T05:47:37;6.30;99.90
10678;DHT22;5387;48.722;9.110;2022-11-15T05:50:06;6.30;99.90
10678;DHT22;5387;48.722;9.110;2022-11-15T05:52:35;6.30;99.90
10678;DHT22;5387;48.722;9.110;2022-11-15T05:55:04;6.30;99.90
10678;DHT22;5387;48.722;9.110;2022-11-15T05:57:32;6.20;99.90
10678;DHT22;5387;48.722;9.110;2022-11-15T05:59:59;6.30;99.90
10678;DHT22;5387;48.722;9.110;2022-11-15T06:02:27;6.30;99.90
10678;DHT22;5387;48.722;9.110;2022-11-15T06:04:54;6.30;99.90
10678;DHT22;5387;48.722;9.110;2022-11-15T06:07:21;6.40;99.90
10678;DHT22;5387;48.722;9.110;2022-11-15T06:09:48;6.30;99.90
10678;DHT22;5387;48.722;9.110;2022-11-15T06:12:14;6.30;99.90
10678;DHT22;5387;48.722;9.110;2022-11-15T06:14:41;6.10;99.90
10678;DHT22;5387;48.722;9.110;2022-11-15T06:17:08;6.00;99.90
10678;DHT22;5387;48.722;9.110;2022-11-15T06:19:36;6.00;99.90
10678;DHT22;5387;48.722;9.110;2022-11-15T06:22:03;5.90;99.90
10678;DHT22;5387;48.722;9.110;2022-11-15T06:24:30;5.90;99.90
10678;DHT22;5387;48.722;9.110;2022-11-15T06:26:56;6.00;99.90
10678;DHT22;5387;48.722;9.110;2022-11-15T06:29:24;6.00;99.90
10678;DHT22;5387;48.722;9.110;2022-11-15T06:31:51;6.10;99.90
10678;DHT22;5387;48.722;9.110;2022-11-15T06:34:18;6.10;99.90
10678;DHT22;5387;48.722;9.110;2022-11-15T06:36:46;6.10;99.90
10678;DHT22;5387;48.722;9.110;2022-11-15T06:39:13;6.20;99.90
10678;DHT22;5387;48.722;9.110;2022-11-15T06:41:40;6.20;99.90
10678;DHT22;5387;48.722;9.110;2022-11-15T06:44:06;6.10;99.90
10678;DHT22;5387;48.722;9.110;2022-11-15T06:46:33;6.20;99.90
10678;DHT22;5387;48.722;9.110;2022-11-15T06:49:00;6.30;99.90
10678;DHT22;5387;48.722;9.110;2022-11-15T06:51:27;6.30;99.90
10678;DHT22;5387;48.722;9.110;2022-11-15T06:53:55;6.30;99.90
10678;DHT22;5387;48.722;9.110;2022-11-15T06:56:22;6.20;99.90
10678;DHT22;5387;48.722;9.110;2022-11-15T06:58:49;6.30;99.90
10678;DHT22;5387;48.722;9.110;2022-11-15T07:01:16;6.40;99.90
10678;DHT22;5387;48.722;9.110;2022-11-15T07:03:42;6.50;99.90
10678;DHT22;5387;48.722;9.110;2022-11-15T07:06:10;6.70;99.90
10678;DHT22;5387;48.722;9.110;2022-11-15T07:08:37;6.80;99.90
10678;DHT22;5387;48.722;9.110;2022-11-15T07:11:07;6.80;99.90
10678;DHT22;5387;48.722;9.110;2022-11-15T07:13:35;6.80;99.90
10678;DHT22;5387;48.722;9.110;2022-11-15T07:16:03;6.90;99.90
10678;DHT22;5387;48.722;9.110;2022-11-15T07:18:30;7.00;99.90
10678;DHT22;5387;48.722;9.110;2022-11-15T07:21:00;7.20;99.90
10678;DHT22;5387;48.722;9.110;2022-11-15T07:23:27;7.40;99.90
10678;DHT22;5387;48.722;9.110;2022-11-15T07:25:56;7.50;99.90
10678;DHT22;5387;48.722;9.110;2022-11-15T07:28:25;7.70;99.90
10678;DHT22;5387;48.722;9.110;2022-11-15T07:30:52;7.90;99.90
10678;DHT22;5387;48.722;9.110;2022-11-15T07:33:18;7.90;99.90
10678;DHT22;5387;48.722;9.110;2022-11-15T07:35:45;8.00;99.90
10678;DHT22;5387;48.722;9.110;2022-11-15T07:38:14;8.30;99.90
10678;DHT22;5387;48.722;9.110;2022-11-15T07:40:45;8.40;99.90
10678;DHT22;5387;48.722;9.110;2022-11-15T07:43:12;8.60;99.90
10678;DHT22;5387;48.722;9.110;2022-11-15T07:45:42;8.70;99.90
10678;DHT22;5387;48.722;9.110;2022-11-15T07:48:09;8.90;99.90
10678;DHT22;5387;48.722;9.110;2022-11-15T07:50:36;9.20;99.90
10678;DHT22;5387;48.722;9.110;2022-11-15T07:53:03;9.20;99.90
10678;DHT22;5387;48.722;9.110;2022-11-15T07:55:30;9.50;99.90
10678;DHT22;5387;48.722;9.110;2022-11-15T07:58:00;9.60;99.90
10678;DHT22;5387;48.722;9.110;2022-11-15T08:00:28;9.70;99.90
10678;DHT22;5387;48.722;9.110;2022-11-15T08:03:03;9.70;99.90
10678;DHT22;5387;48.722;9.110;2022-11-15T08:05:31;9.60;99.90
10678;DHT22;5387;48.722;9.110;2022-11-15T08:07:58;9.80;99.90
10678;DHT22;5387;48.722;9.110;2022-11-15T08:10:25;9.80;99.90
10678;DHT22;5387;48.722;9.110;2022-11-15T08:12:57;9.80;99.90
10678;DHT22;5387;48.722;9.110;2022-11-15T08:15:25;9.90;99.90
10678;DHT22;5387;48.722;9.110;2022-11-15T08:17:55;9.80;99.90
10678;DHT22;5387;48.722;9.110;2022-11-15T08:20:23;9.80;99.90
10678;DHT22;5387;48.722;9.110;2022-11-15T08:22:50;9.80;99.90
10678;DHT22;5387;48.722;9.110;2022-11-15T08:25:18;10.00;99.90
10678;DHT22;5387;48.722;9.110;2022-11-15T08:27:44;10.10;99.90
10678;DHT22;5387;48.722;9.110;2022-11-15T08:30:12;10.30;99.90
10678;DHT22;5387;48.722;9.110;2022-11-15T08:32:39;10.30;99.90
10678;DHT22;5387;48.722;9.110;2022-11-15T08:35:06;10.50;99.90
10678;DHT22;5387;48.722;9.110;2022-11-15T08:37:35;10.60;99.90
10678;DHT22;5387;48.722;9.110;2022-11-15T08:40:02;10.70;99.90
10678;DHT22;5387;48.722;9.110;2022-11-15T08:42:29;10.90;99.90
10678;DHT22;5387;48.722;9.110;2022-11-15T08:44:56;11.20;99.90
10678;DHT22;5387;48.722;9.110;2022-11-15T08:47:22;11.50;99.90
10678;DHT22;5387;48.722;9.110;2022-11-15T08:49:50;11.70;99.90
10678;DHT22;5387;48.722;9.110;2022-11-15T08:52:16;11.90;99.90
10678;DHT22;5387;48.722;9.110;2022-11-15T08:54:46;12.20;99.90
10678;DHT22;5387;48.722;9.110;2022-11-15T08:57:12;12.40;99.90
10678;DHT22;5387;48.722;9.110;2022-11-15T08:59:39;12.50;99.90
10678;DHT22;5387;48.722;9.110;2022-11-15T09:02:10;12.70;99.90
10678;DHT22;5387;48.722;9.110;2022-11-15T09:04:39;12.90;99.90
10678;DHT22;5387;48.722;9.110;2022-11-15T09:07:06;12.80;99.90
10678;DHT22;5387;48.722;9.110;2022-11-15T09:09:33;12.90;99.90
10678;DHT22;5387;48.722;9.110;2022-11-15T09:12:01;12.80;99.90
10678;DHT22;5387;48.722;9.110;2022-11-15T09:14:29;12.70;99.90
10678;DHT22;5387;48.722;9.110;2022-11-15T09:16:55;12.50;99.90
10678;DHT22;5387;48.722;9.110;2022-11-15T09:19:22;12.50;99.90
10678;DHT22;5387;48.722;9.110;2022-11-15T09:21:49;12.40;99.90
10678;DHT22;5387;48.722;9.110;2022-11-15T09:24:16;12.40;99.90
10678;DHT22;5387;48.722;9.110;2022-11-15T09:26:43;12.40;99.90
10678;DHT22;5387;48.722;9.110;2022-11-15T09:29:12;12.60;99.90
10678;DHT22;5387;48.722;9.110;2022-11-15T09:31:38;12.90;99.90
10678;DHT22;5387;48.722;9.110;2022-11-15T09:34:05;13.20;99.90
10678;DHT22;5387;48.722;9.110;2022-11-15T09:36:32;13.20;99.90
10678;DHT22;5387;48.722;9.110;2022-11-15T09:38:59;13.20;99.90
10678;DHT22;5387;48.722;9.110;2022-11-15T09:41:50;13.20;99.90
10678;DHT22;5387;48.722;9.110;2022-11-15T09:44:38;13.50;99.90
10678;DHT22;5387;48.722;9.110;2022-11-15T09:47:32;13.90;99.90
10678;DHT22;5387;48.722;9.110;2022-11-15T09:50:09;14.00;99.90
10678;DHT22;5387;48.722;9.110;2022-11-15T09:52:37;13.90;99.90
10678;DHT22;5387;48.722;9.110;2022-11-15T09:55:09;13.70;99.90
10678;DHT22;5387;48.722;9.110;2022-11-15T09:57:41;13.60;99.90
10678;DHT22;5387;48.722;9.110;2022-11-15T10:00:18;13.80;99.90
10678;DHT22;5387;48.722;9.110;2022-11-15T10:03:01;14.00;99.90
10678;DHT22;5387;48.722;9.110;2022-11-15T10:05:40;14.00;99.90
10678;DHT22;5387;48.722;9.110;2022-11-15T10:08:22;14.10;99.90
10678;DHT22;5387;48.722;9.110;2022-11-15T10:10:55;13.90;99.90
10678;DHT22;5387;48.722;9.110;2022-11-15T10:13:24;13.70;99.90
10678;DHT22;5387;48.722;9.110;2022-11-15T10:15:54;13.70;99.90
10678;DHT22;5387;48.722;9.110;2022-11-15T10:18:26;13.70;99.90
10678;DHT22;5387;48.722;9.110;2022-11-15T10:21:08;13.70;99.90
10678;DHT22;5387;48.722;9.110;2022-11-15T10:23:38;13.40;99.90
10678;DHT22;5387;48.722;9.110;2022-11-15T10:26:08;13.40;99.90
10678;DHT22;5387;48.722;9.110;2022-11-15T10:28:37;13.40;99.90
10678;DHT22;5387;48.722;9.110;2022-11-15T10:31:22;13.60;99.90
10678;DHT22;5387;48.722;9.110;2022-11-15T10:33:49;13.90;99.90
10678;DHT22;5387;48.722;9.110;2022-11-15T10:36:21;13.90;99.90
10678;DHT22;5387;48.722;9.110;2022-11-15T10:38:55;13.80;99.90
10678;DHT22;5387;48.722;9.110;2022-11-15T10:41:30;13.70;99.90
10678;DHT22;5387;48.722;9.110;2022-11-15T10:44:22;13.90;99.90
10678;DHT22;5387;48.722;9.110;2022-11-15T10:47:20;14.00;99.90
10678;DHT22;5387;48.722;9.110;2022-11-15T10:50:03;14.10;99.90
10678;DHT22;5387;48.722;9.110;2022-11-15T10:52:33;14.00;99.90
10678;DHT22;5387;48.722;9.110;2022-11-15T10:55:05;13.80;99.90
10678;DHT22;5387;48.722;9.110;2022-11-15T10:57:35;13.80;99.90
10678;DHT22;5387;48.722;9.110;2022-11-15T11:00:06;13.90;99.90
10678;DHT22;5387;48.722;9.110;2022-11-15T11:02:36;13.90;99.90
10678;DHT22;5387;48.722;9.110;2022-11-15T11:05:05;13.90;99.90
10678;DHT22;5387;48.722;9.110;2022-11-15T11:07:34;13.70;99.90
10678;DHT22;5387;48.722;9.110;2022-11-15T11:10:05;13.50;99.90
10678;DHT22;5387;48.722;9.110;2022-11-15T11:12:43;13.50;99.90
10678;DHT22;5387;48.722;9.110;2022-11-15T11:15:12;13.70;99.90
10678;DHT22;5387;48.722;9.110;2022-11-15T11:17:51;13.70;99.90
10678;DHT22;5387;48.722;9.110;2022-11-15T11:20:26;14.20;99.90
10678;DHT22;5387;48.722;9.110;2022-11-15T11:23:03;14.00;99.90
10678;DHT22;5387;48.722;9.110;2022-11-15T11:25:34;14.10;99.90
10678;DHT22;5387;48.722;9.110;2022-11-15T11:28:25;14.10;99.90
10678;DHT22;5387;48.722;9.110;2022-11-15T11:31:00;14.00;99.90
10678;DHT22;5387;48.722;9.110;2022-11-15T11:33:34;14.20;99.90
10678;DHT22;5387;48.722;9.110;2022-11-15T11:36:16;14.20;99.90
10678;DHT22;5387;48.722;9.110;2022-11-15T11:38:51;14.00;99.90
10678;DHT22;5387;48.722;9.110;2022-11-15T11:41:34;14.00;99.90
10678;DHT22;5387;48.722;9.110;2022-11-15T11:44:15;14.10;99.90
10678;DHT22;5387;48.722;9.110;2022-11-15T11:46:49;14.20;99.90
10678;DHT22;5387;48.722;9.110;2022-11-15T11:49:24;14.10;99.90
10678;DHT22;5387;48.722;9.110;2022-11-15T11:51:54;14.10;99.90
10678;DHT22;5387;48.722;9.110;2022-11-15T11:54:26;14.10;99.90
10678;DHT22;5387;48.722;9.110;2022-11-15T11:56:58;14.30;99.90
10678;DHT22;5387;48.722;9.110;2022-11-15T11:59:33;14.50;99.90
10678;DHT22;5387;48.722;9.110;2022-11-15T12:02:12;14.60;99.90
10678;DHT22;5387;48.722;9.110;2022-11-15T12:04:46;14.20;99.90
10678;DHT22;5387;48.722;9.110;2022-11-15T12:07:17;14.40;99.90
10678;DHT22;5387;48.722;9.110;2022-11-15T12:09:52;14.40;99.90
10678;DHT22;5387;48.722;9.110;2022-11-15T12:12:25;14.40;99.90
10678;DHT22;5387;48.722;9.110;2022-11-15T12:14:56;14.40;99.90
10678;DHT22;5387;48.722;9.110;2022-11-15T12:17:25;14.50;99.90
10678;DHT22;5387;48.722;9.110;2022-11-15T12:19:56;14.40;99.90
10678;DHT22;5387;48.722;9.110;2022-11-15T12:22:33;14.30;99.90
10678;DHT22;5387;48.722;9.110;2022-11-15T12:25:04;14.50;99.90
10678;DHT22;5387;48.722;9.110;2022-11-15T12:27:37;14.40;99.90
10678;DHT22;5387;48.722;9.110;2022-11-15T12:30:11;14.30;99.90
10678;DHT22;5387;48.722;9.110;2022-11-15T12:32:39;14.20;99.90
10678;DHT22;5387;48.722;9.110;2022-11-15T12:35:24;13.90;99.90
10678;DHT22;5387;48.722;9.110;2022-11-15T12:37:52;13.90;99.90
10678;DHT22;5387;48.722;9.110;2022-11-15T12:40:27;14.10;99.90
10678;DHT22;5387;48.722;9.110;2022-11-15T12:43:00;14.10;99.90
10678;DHT22;5387;48.722;9.110;2022-11-15T12:45:29;14.00;99.90
10678;DHT22;5387;48.722;9.110;2022-11-15T12:50:59;13.70;99.90
10678;DHT22;5387;48.722;9.110;2022-11-15T12:53:27;13.70;99.90
10678;DHT22;5387;48.722;9.110;2022-11-15T12:56:20;13.60;99.90
10678;DHT22;5387;48.722;9.110;2022-11-15T12:58:49;13.50;99.90
10678;DHT22;5387;48.722;9.110;2022-11-15T13:01:55;13.50;99.90
10678;DHT22;5387;48.722;9.110;2022-11-15T13:04:25;13.70;99.90
10678;DHT22;5387;48.722;9.110;2022-11-15T13:06:55;13.80;99.90
10678;DHT22;5387;48.722;9.110;2022-11-15T13:09:54;13.90;99.90
10678;DHT22;5387;48.722;9.110;2022-11-15T13:12:53;13.90;99.90
10678;DHT22;5387;48.722;9.110;2022-11-15T13:15:45;13.80;99.90
10678;DHT22;5387;48.722;9.110;2022-11-15T13:18:41;13.80;99.90
10678;DHT22;5387;48.722;9.110;2022-11-15T13:21:21;13.80;99.90
10678;DHT22;5387;48.722;9.110;2022-11-15T13:24:12;13.80;99.90
10678;DHT22;5387;48.722;9.110;2022-11-15T13:26:39;13.80;99.90
10678;DHT22;5387;48.722;9.110;2022-11-15T13:29:15;13.70;99.90
10678;DHT22;5387;48.722;9.110;2022-11-15T13:31:43;13.80;99.90
10678;DHT22;5387;48.722;9.110;2022-11-15T13:34:24;13.90;99.90
10678;DHT22;5387;48.722;9.110;2022-11-15T13:36:52;13.80;99.90
10678;DHT22;5387;48.722;9.110;2022-11-15T13:39:28;13.90;99.90
10678;DHT22;5387;48.722;9.110;2022-11-15T13:41:56;13.80;99.90
10678;DHT22;5387;48.722;9.110;2022-11-15T13:44:25;13.70;99.90
10678;DHT22;5387;48.722;9.110;2022-11-15T13:47:03;13.70;99.90
10678;DHT22;5387;48.722;9.110;2022-11-15T13:49:31;13.50;99.90
10678;DHT22;5387;48.722;9.110;2022-11-15T13:52:00;13.50;99.90
10678;DHT22;5387;48.722;9.110;2022-11-15T13:54:33;13.40;99.90
10678;DHT22;5387;48.722;9.110;2022-11-15T13:57:02;13.40;99.90
10678;DHT22;5387;48.722;9.110;2022-11-15T13:59:31;13.40;99.90
10678;DHT22;5387;48.722;9.110;2022-11-15T14:02:03;13.20;99.90
10678;DHT22;5387;48.722;9.110;2022-11-15T14:04:39;13.10;99.90
10678;DHT22;5387;48.722;9.110;2022-11-15T14:07:16;13.10;99.90
10678;DHT22;5387;48.722;9.110;2022-11-15T14:09:45;13.00;99.90
10678;DHT22;5387;48.722;9.110;2022-11-15T14:12:24;12.90;99.90
10678;DHT22;5387;48.722;9.110;2022-11-15T14:14:51;12.90;99.90
10678;DHT22;5387;48.722;9.110;2022-11-15T14:17:21;13.00;99.90
10678;DHT22;5387;48.722;9.110;2022-11-15T14:19:49;13.00;99.90
10678;DHT22;5387;48.722;9.110;2022-11-15T14:22:20;12.90;99.90
10678;DHT22;5387;48.722;9.110;2022-11-15T14:25:13;13.10;99.90
10678;DHT22;5387;48.722;9.110;2022-11-15T14:27:41;13.20;99.90
10678;DHT22;5387;48.722;9.110;2022-11-15T14:30:13;13.20;99.90
10678;DHT22;5387;48.722;9.110;2022-11-15T14:32:44;13.20;99.90
10678;DHT22;5387;48.722;9.110;2022-11-15T14:35:16;13.30;99.90
10678;DHT22;5387;48.722;9.110;2022-11-15T14:37:43;13.40;99.90
10678;DHT22;5387;48.722;9.110;2022-11-15T14:40:15;13.50;99.90
10678;DHT22;5387;48.722;9.110;2022-11-15T14:42:43;13.30;99.90
10678;DHT22;5387;48.722;9.110;2022-11-15T14:45:13;13.30;99.90
10678;DHT22;5387;48.722;9.110;2022-11-15T14:47:41;13.20;99.90
10678;DHT22;5387;48.722;9.110;2022-11-15T14:50:11;13.30;99.90
10678;DHT22;5387;48.722;9.110;2022-11-15T14:52:39;13.30;99.90
10678;DHT22;5387;48.722;9.110;2022-11-15T14:55:15;13.30;99.90
10678;DHT22;5387;48.722;9.110;2022-11-15T14:57:43;13.30;99.90
10678;DHT22;5387;48.722;9.110;2022-11-15T15:00:11;13.30;99.90
10678;DHT22;5387;48.722;9.110;2022-11-15T15:02:39;13.20;99.90
10678;DHT22;5387;48.722;9.110;2022-11-15T15:05:14;12.80;99.90
10678;DHT22;5387;48.722;9.110;2022-11-15T15:07:41;12.70;99.90
10678;DHT22;5387;48.722;9.110;2022-11-15T15:10:08;12.60;99.90
10678;DHT22;5387;48.722;9.110;2022-11-15T15:12:36;12.50;99.90
10678;DHT22;5387;48.722;9.110;2022-11-15T15:15:05;12.40;99.90
10678;DHT22;5387;48.722;9.110;2022-11-15T15:17:32;12.40;99.90
10678;DHT22;5387;48.722;9.110;2022-11-15T15:19:59;12.30;99.90
10678;DHT22;5387;48.722;9.110;2022-11-15T15:22:28;12.20;99.90
10678;DHT22;5387;48.722;9.110;2022-11-15T15:24:55;12.00;99.90
10678;DHT22;5387;48.722;9.110;2022-11-15T15:27:23;11.90;99.90
10678;DHT22;5387;48.722;9.110;2022-11-15T15:29:51;11.80;99.90
10678;DHT22;5387;48.722;9.110;2022-11-15T15:32:18;11.70;99.90
10678;DHT22;5387;48.722;9.110;2022-11-15T15:34:45;11.60;99.90
10678;DHT22;5387;48.722;9.110;2022-11-15T15:37:22;11.60;99.90
10678;DHT22;5387;48.722;9.110;2022-11-15T15:39:50;11.50;99.90
10678;DHT22;5387;48.722;9.110;2022-11-15T15:42:18;11.40;99.90
10678;DHT22;5387;48.722;9.110;2022-11-15T15:44:45;11.50;99.90
10678;DHT22;5387;48.722;9.110;2022-11-15T15:47:14;11.50;99.90
10678;DHT22;5387;48.722;9.110;2022-11-15T15:49:42;11.40;99.90
10678;DHT22;5387;48.722;9.110;2022-11-15T15:52:09;11.60;99.90
10678;DHT22;5387;48.722;9.110;2022-11-15T15:54:37;11.50;99.90
10678;DHT22;5387;48.722;9.110;2022-11-15T15:57:04;11.60;99.90
10678;DHT22;5387;48.722;9.110;2022-11-15T15:59:31;11.40;99.90
10678;DHT22;5387;48.722;9.110;2022-11-15T16:01:58;11.60;99.90
10678;DHT22;5387;48.722;9.110;2022-11-15T16:04:26;11.40;99.90
10678;DHT22;5387;48.722;9.110;2022-11-15T16:06:58;11.40;99.90
10678;DHT22;5387;48.722;9.110;2022-11-15T16:09:25;11.50;99.90
10678;DHT22;5387;48.722;9.110;2022-11-15T16:12:06;11.30;99.90
10678;DHT22;5387;48.722;9.110;2022-11-15T16:14:33;11.30;99.90
10678;DHT22;5387;48.722;9.110;2022-11-15T16:16:59;11.30;99.90
10678;DHT22;5387;48.722;9.110;2022-11-15T16:19:28;11.40;99.90
10678;DHT22;5387;48.722;9.110;2022-11-15T16:21:55;11.40;99.90
10678;DHT22;5387;48.722;9.110;2022-11-15T16:24:22;11.40;99.90
10678;DHT22;5387;48.722;9.110;2022-11-15T16:26:50;11.40;99.90